Flight Track Log - Related Links

Times and Time Zones

All times are in EDT time to prevent confusion due to time zone crossing. See the USC105 flight status page for this flight to view local times or setup timezone preferences in your user account.

Time Position Orientation Groundspeed Altitude Reporting Facility
EDT Latitude Longitude Course Direction KTS MPH feet Rate Location/Type
Tue 05:28:34 AM 41.8500 -88.2667 151° Southeast 129 148 2,400  Level Chicago TRACON
Tue 05:29:34 AM 41.8167 -88.2667 180° South 128 147 3,600 1,069 Climbing Chicago TRACON
Tue 05:30:15 AM 41.8036 -88.2614 163° South 127 146 4,200 1,069 Climbing Chicago Center
Tue 05:31:15 AM 41.7664 -88.2589 177° South 131 151 5,400 1,091 Climbing Chicago Center
Tue 05:32:16 AM 41.7350 -88.2347 150° Southeast 144 166 6,400 843 Climbing Chicago Center
Tue 05:33:00 AM 41.9350 -87.9377 151° Southeast  Level Estimated
Tue 05:33:16 AM 41.7131 -88.1903 123° Southeast 144 166 7,100  Level Chicago Center
Tue 05:34:17 AM 41.7206 -88.1219 82° East 190 219 7,100 -49 Level Chicago Center
Tue 05:35:18 AM 41.7369 -88.0542 72° East 191 220 7,000 -50 Descending Chicago Center
Tue 05:36:18 AM 41.7597 -87.9742 69° East 191 220 7,000 50 Level Chicago Center
Tue 05:37:18 AM 41.7681 -87.9039 81° East 193 222 7,100  Climbing Chicago Center
Tue 05:38:19 AM 41.7756 -87.8344 82° East 189 217 7,000 -50 Descending Chicago Center
Tue 05:39:19 AM 41.7825 -87.7683 82° East 182 209 7,000  Level Chicago Center
Tue 05:40:20 AM 41.7914 -87.6992 80° East 187 215 7,000  Level Chicago Center
Tue 05:41:20 AM 41.8003 -87.6306 80° East 188 216 7,000  Level Chicago Center
Tue 05:42:21 AM 41.8078 -87.5636 81° East 184 212 7,000  Level Chicago Center
Tue 05:43:21 AM 41.8172 -87.4953 79° East 185 213 7,000  Level Chicago Center
Tue 05:44:22 AM 41.8247 -87.4250 82° East 189 217 7,000  Level Chicago Center
Tue 05:45:22 AM 41.8342 -87.3567 79° East 188 216 7,000  Level Chicago Center
Tue 05:46:23 AM 41.8414 -87.2883 82° East 187 215 7,000  Level Chicago Center
Tue 05:47:23 AM 41.8500 -87.2203 80° East 187 215 7,000  Level Chicago Center
Tue 05:48:23 AM 41.8597 -87.1539 79° East 184 212 7,000  Level Chicago Center
Tue 05:49:24 AM 41.8672 -87.0861 82° East 184 212 7,000  Level Chicago Center
Tue 05:50:24 AM 41.8750 -87.0181 81° East 185 213 7,000  Level Chicago Center
Tue 05:51:25 AM 41.8836 -86.9508 80° East 185 213 7,000  Level Chicago Center
Tue 05:52:25 AM 41.8911 -86.8833 81° East 184 212 7,000  Level Chicago Center
Tue 05:53:26 AM 41.8989 -86.8156 81° East 185 213 7,000  Level Chicago Center
Tue 05:54:26 AM 41.9064 -86.7478 82° East 184 212 7,000  Level Chicago Center
Tue 05:55:27 AM 41.9142 -86.6794 81° East 184 212 7,000  Level Chicago Center
Tue 05:56:27 AM 41.9219 -86.6125 81° East 183 211 7,000  Level Chicago Center
Tue 05:57:28 AM 41.9303 -86.5456 80° East 183 211 7,000  Level Chicago Center
Tue 05:58:28 AM 41.9372 -86.4786 82° East 181 208 7,000  Level Chicago Center
Tue 05:59:29 AM 41.9461 -86.4131 80° East 180 207 7,000  Level Chicago Center
Tue 06:00:29 AM 41.9542 -86.3314 82° East 182 209 7,000  Level Chicago Center
Tue 06:01:30 AM 41.9614 -86.2650 82° East 180 207 7,000  Level Chicago Center
Tue 06:02:30 AM 41.9692 -86.1992 81° East 179 206 7,000  Level Chicago Center
Tue 06:03:30 AM 41.9769 -86.1328 81° East 179 206 7,000  Level Chicago Center
Tue 06:04:31 AM 41.9836 -86.0667 82° East 179 206 7,000  Level Chicago Center
Tue 06:05:31 AM 41.9917 -86.0025 80° East 176 203 7,000  Level Chicago Center
Tue 06:06:32 AM 41.9983 -85.9356 82° East 179 206 7,000  Level Chicago Center
Tue 06:07:32 AM 42.0064 -85.8689 81° East 179 206 7,000  Level Chicago Center
Tue 06:08:33 AM 42.0133 -85.8025 82° East 179 206 7,000  Level Chicago Center
Tue 06:09:33 AM 42.0214 -85.7350 81° East 181 208 7,000  Level Chicago Center
Tue 06:10:34 AM 42.0283 -85.6675 82° East 181 208 7,000  Level Chicago Center
Tue 06:11:34 AM 42.0350 -85.5997 82° East 182 209 7,000  Level Chicago Center
Tue 06:12:35 AM 42.0431 -85.5328 81° East 182 209 7,000  Level Chicago Center
Tue 06:13:35 AM 42.0503 -85.4653 82° East 182 209 7,000  Level Chicago Center
Tue 06:14:36 AM 42.0569 -85.3975 82° East 182 209 7,000  Level Chicago Center
Tue 06:15:36 AM 42.0639 -85.3300 82° East 182 209 7,000 50 Level Chicago Center
Tue 06:16:37 AM 42.0706 -85.2631 82° East 181 208 7,100  Climbing Chicago Center
Tue 06:17:37 AM 42.0775 -85.1953 82° East 181 208 7,000 -50 Descending Chicago Center
Tue 06:18:38 AM 42.0842 -85.1275 82° East 183 211 7,000  Level Chicago Center
Tue 06:19:38 AM 42.0917 -85.0611 81° East 181 208 7,000  Level Chicago Center
Tue 06:20:39 AM 42.0983 -84.9933 82° East 180 207 7,000  Level Chicago Center
Tue 06:21:39 AM 42.1050 -84.9267 82° East 181 208 7,000  Level Chicago Center
Tue 06:22:40 AM 42.1119 -84.8594 82° East 181 208 7,000  Level Chicago Center
Tue 06:23:40 AM 42.1189 -84.7931 82° East 180 207 7,000 -248 Level Chicago Center
Tue 06:24:41 AM 42.1253 -84.7247 83° East 182 209 6,500 -496 Descending Chicago Center
Tue 06:25:41 AM 42.1325 -84.6525 82° East 191 220 6,000 -496 Descending Chicago Center
Tue 06:26:42 AM 42.1397 -84.5800 82° East 194 223 5,500 -492 Descending Chicago Center
Tue 06:27:43 AM 42.1478 -84.5044 82° East 193 222 5,000 -248 Descending Chicago Center
Tue 06:28:43 AM 42.1539 -84.4364 83° East 187 215 5,000 50 Level Chicago Center
Tue 06:29:44 AM 42.1603 -84.3719 82° East 179 206 5,100  Climbing Chicago Center
Tue 06:30:21 AM 42.1636 -84.3261 84° East 175 201 5,000 -58 Descending Cleveland Center
Tue 06:31:28 AM 42.1703 -84.2508 83° East 175 201 5,000 49 Level Cleveland Center
Tue 06:32:23 AM 42.1764 -84.1922 82° East 175 201 5,100 45 Climbing Cleveland Center
Tue 06:33:42 AM 42.1831 -84.1058 84° East 174 200 5,100 -43 Level Cleveland Center
Tue 06:34:42 AM 42.1892 -84.0444 82° East 172 198 5,000 -365 Descending Cleveland Center
Tue 06:35:37 AM 42.1972 -83.9831 80° East 186 214 4,400 -595 Descending Cleveland Center
Tue 06:36:43 AM 42.2036 -83.9078 83° East 185 213 3,800 -520 Descending Cleveland Center
Tue 06:37:44 AM 42.2078 -83.8406 85° East 181 208 3,300 -462 Descending Cleveland Center
Tue 06:38:27 AM 42.2131 -83.7933 81° East 183 211 3,000 -165 Descending Cleveland Center
Tue 06:39:33 AM 42.2194 -83.7178 83° East 161 185 3,000 -287 Level Cleveland Center
Tue 06:41:00 AM 42.2283 -83.6217 83° East  Level FlightAware Approximate
Tue 06:41:35 AM 42.1869 -83.6097 83° East 161 185 2,100  Level Cleveland Center
Tue 06:42:35 AM 42.2172 -83.5636 48° Northeast 156 180 1,400 -700 Descending Cleveland Center
Tue 06:44:00 AM 42.2333 -83.5167 90° East  Level FlightAware Approximate
Tue 06:51:00 AM 42.2393 -83.5310 90° East  Level Estimated
Tue 06:52:00 AM 42.2393 -83.5310 90° East  Level Estimated

Login

Don't have an account? Register now (free) for customized features, flight alerts, and more!